Hlavní strana
METAR-TAF:

METAR-TAF

Letiště :

Førde, Norsko

zeměpisná šířka: 61-27N, zeměpisná délka: 005-52E, výška: 150 m

Aktuální stav počasí

Zpráva byla vytvořena před 4 hodinami a 34 minutami, v 22:50 UTC
vítr z různých směrů 2 kt
Teplota 6°C
Vlhkost vzduchu 93%
Tlak 1012 hPa
Viditelnost 10 km a více
Skoro jasno ve výšce 1200 ft
Polojasno ve výšce 1800 ft
Oblačno až skoro zataženo ve výšce 3100 ft
přeháňky v blízkosti

METAR: ENBL 132250Z VRB02KT 9999 VCSH FEW012 SCT018 BKN031 06/05 Q1012

Čas: 04:24 (03:24 UTC)


TAF: chybějící

Stav a předpovědi počasí z více než 4 000 letišť (zprávy METAR a TAF).

Červené a žluté tečky na mapě představují dostupné meteorologické stanice.

Když kurzor umístíte na tečku, zobrazí se název stanice.

Pak kliknutím zobrazíte stav a předpověď počasí.

Chcete-li změnit mapu, kliknutím na zelené tlačítko se znaménkem +mapu přiblížíte, kliknutím na zelené tlačítko se znaménkem – mapu oddálíte a kliknutím na zelené šipky přejdete na sousední mapy.


METAR-TAF: